Time;durP1;ratioP1;P1;durP2;ratioP2;P2;SDS_P1;SDS_P2;PMS_P1;PMS_P2;Temp;Humidity;BMP_temperature;BMP_pressure;BME280_temperature;BME280_humidity;BME280_pressure;Samples;Min_cycle;Max_cycle;Signal;HPM_P1;HPM_P2
2024/03/04 00:01:45;;;;;;;36.47;7.95;;;;;;;;;;5111207;28;20478;-38
2024/03/04 00:04:13;;;;;;;25.60;6.60;;;;;;;;;;5113271;28;20431;-34
2024/03/04 00:06:40;;;;;;;38.63;7.15;;;;;;;;;;5114093;28;20118;-37
2024/03/04 00:09:08;;;;;;;30.33;6.43;;;;;;;;;;5112691;28;20024;-36
2024/03/04 00:11:36;;;;;;;24.13;5.65;;;;;;;;;;5111246;28;20427;-39
2024/03/04 00:14:03;;;;;;;56.80;6.97;;;;;;;;;;5108483;28;20032;-40
2024/03/04 00:16:31;;;;;;;29.58;6.38;;;;;;;;;;5109928;28;20035;-40
2024/03/04 00:18:58;;;;;;;28.02;5.57;;;;;;;;;;5112713;28;20632;-37
2024/03/04 00:21:27;;;;;;;29.80;5.65;;;;;;;;;;5102444;28;20127;-34
2024/03/04 00:23:54;;;;;;;37.17;6.60;;;;;;;;;;5098472;28;20063;-38
2024/03/04 00:26:21;;;;;;;30.58;6.13;;;;;;;;;;5113333;28;20032;-38
2024/03/04 00:28:48;;;;;;;40.65;7.97;;;;;;;;;;5113582;28;20028;-33
2024/03/04 00:31:15;;;;;;;43.85;7.50;;;;;;;;;;5113413;28;20020;-40
2024/03/04 00:33:42;;;;;;;28.90;6.35;;;;;;;;;;5109565;27;20030;-37
2024/03/04 00:36:10;;;;;;;35.42;7.35;;;;;;;;;;5102404;28;20095;-38
2024/03/04 00:38:37;;;;;;;47.60;10.85;;;;;;;;;;5112936;28;20043;-40
2024/03/04 00:41:04;;;;;;;37.33;10.95;;;;;;;;;;5110549;28;20040;-36
2024/03/04 00:43:31;;;;;;;46.58;12.80;;;;;;;;;;5082932;28;20028;-34
2024/03/04 00:45:58;;;;;;;39.03;12.25;;;;;;;;;;5112580;28;20031;-41
2024/03/04 00:48:25;;;;;;;44.60;11.77;;;;;;;;;;5113317;28;20038;-37
2024/03/04 00:50:52;;;;;;;37.75;10.20;;;;;;;;;;5092919;28;20024;-33
2024/03/04 00:53:19;;;;;;;38.40;10.70;;;;;;;;;;5092726;28;20762;-32
2024/03/04 00:55:47;;;;;;;44.50;11.13;;;;;;;;;;5099902;28;20497;-35
2024/03/04 00:58:14;;;;;;;40.67;9.70;;;;;;;;;;5099183;28;20039;-36
2024/03/04 01:00:41;;;;;;;43.95;10.40;;;;;;;;;;5105504;28;20481;-37
2024/03/04 01:03:08;;;;;;;64.32;10.88;;;;;;;;;;5093427;28;20028;-33
2024/03/04 01:05:35;;;;;;;40.05;9.32;;;;;;;;;;5103448;28;20030;-30
2024/03/04 01:08:02;;;;;;;47.65;9.57;;;;;;;;;;5093700;28;20028;-31
2024/03/04 01:10:29;;;;;;;48.97;9.95;;;;;;;;;;5102581;28;20031;-35
2024/03/04 01:12:56;;;;;;;50.05;10.32;;;;;;;;;;5112845;28;20027;-34
2024/03/04 01:15:23;;;;;;;53.97;12.55;;;;;;;;;;5110455;28;20023;-38
2024/03/04 01:17:51;;;;;;;48.17;11.88;;;;;;;;;;5104683;28;20031;-38
2024/03/04 01:20:20;;;;;;;55.70;11.95;;;;;;;;;;5105967;28;20032;-35
2024/03/04 01:22:49;;;;;;;41.58;11.63;;;;;;;;;;5103908;28;20117;-35
2024/03/04 01:25:16;;;;;;;41.40;11.73;;;;;;;;;;5106767;28;20092;-37
2024/03/04 01:27:43;;;;;;;49.05;11.93;;;;;;;;;;5106739;28;20073;-37
2024/03/04 01:30:12;;;;;;;58.28;11.68;;;;;;;;;;5104469;28;20102;-36
2024/03/04 01:32:39;;;;;;;38.65;10.93;;;;;;;;;;5102742;28;20466;-36
2024/03/04 01:35:07;;;;;;;34.78;9.95;;;;;;;;;;5099741;28;20036;-37
2024/03/04 01:37:34;;;;;;;49.58;11.55;;;;;;;;;;5106797;28;20089;-33
2024/03/04 01:40:03;;;;;;;43.17;9.48;;;;;;;;;;5108921;28;20045;-42
2024/03/04 01:42:30;;;;;;;33.70;8.85;;;;;;;;;;5109746;28;20088;-38
2024/03/04 01:44:57;;;;;;;33.60;8.50;;;;;;;;;;5106394;28;20024;-36
2024/03/04 01:47:25;;;;;;;35.33;8.40;;;;;;;;;;5102232;28;20023;-34
2024/03/04 01:49:52;;;;;;;38.50;7.60;;;;;;;;;;5100381;28;20032;-34
2024/03/04 01:52:20;;;;;;;33.10;6.97;;;;;;;;;;5109214;28;20039;-33
2024/03/04 01:54:49;;;;;;;35.30;7.43;;;;;;;;;;5109528;28;20039;-38
2024/03/04 01:57:17;;;;;;;33.85;7.90;;;;;;;;;;5110453;28;20050;-36
2024/03/04 01:59:47;;;;;;;33.28;6.75;;;;;;;;;;5107674;28;20038;-35
2024/03/04 02:02:16;;;;;;;31.88;6.45;;;;;;;;;;5110081;28;20070;-38
2024/03/04 02:04:43;;;;;;;29.75;6.20;;;;;;;;;;5110104;28;20058;-34
2024/03/04 02:07:17;;;;;;;30.77;5.80;;;;;;;;;;5110742;28;20051;-35
2024/03/04 02:09:47;;;;;;;19.60;5.28;;;;;;;;;;5110446;28;20077;-32
2024/03/04 02:12:14;;;;;;;19.17;4.60;;;;;;;;;;5110817;28;20023;-32
2024/03/04 02:14:44;;;;;;;18.85;5.00;;;;;;;;;;5111336;28;20024;-32
2024/03/04 02:17:17;;;;;;;24.15;4.60;;;;;;;;;;5104804;28;20392;-34
2024/03/04 02:19:44;;;;;;;18.85;4.70;;;;;;;;;;5107439;28;20054;-38
2024/03/04 02:22:13;;;;;;;24.63;4.40;;;;;;;;;;5108739;28;20130;-36
2024/03/04 02:24:41;;;;;;;19.83;5.05;;;;;;;;;;5105871;28;20051;-36
2024/03/04 02:27:08;;;;;;;19.27;4.35;;;;;;;;;;5109924;28;20044;-40
2024/03/04 02:29:35;;;;;;;19.27;4.18;;;;;;;;;;5086346;28;20031;-36
2024/03/04 02:32:03;;;;;;;22.33;4.57;;;;;;;;;;5110597;28;20027;-30
2024/03/04 02:34:30;;;;;;;27.38;4.57;;;;;;;;;;5110179;28;20034;-33
2024/03/04 02:36:58;;;;;;;25.20;4.18;;;;;;;;;;5110255;28;20027;-38
2024/03/04 02:39:26;;;;;;;18.77;4.03;;;;;;;;;;5108069;28;20036;-38
2024/03/04 02:41:53;;;;;;;20.40;4.63;;;;;;;;;;5110786;28;20579;-34
2024/03/04 02:44:20;;;;;;;17.88;4.07;;;;;;;;;;5110500;28;20044;-33
2024/03/04 02:46:51;;;;;;;21.77;4.28;;;;;;;;;;5110552;28;20111;-35
2024/03/04 02:49:21;;;;;;;16.38;3.85;;;;;;;;;;5110692;28;20032;-36
2024/03/04 02:51:48;;;;;;;15.65;4.13;;;;;;;;;;5105777;28;20130;-38
2024/03/04 02:54:15;;;;;;;14.65;3.70;;;;;;;;;;5107520;28;20397;-33
2024/03/04 02:56:42;;;;;;;14.00;3.88;;;;;;;;;;5110698;28;20019;-39
2024/03/04 02:59:09;;;;;;;11.63;3.05;;;;;;;;;;5114673;28;20043;-41
2024/03/04 03:01:36;;;;;;;17.73;3.08;;;;;;;;;;5111727;28;20036;-36
2024/03/04 03:04:03;;;;;;;13.40;2.92;;;;;;;;;;5115707;28;20059;-37
2024/03/04 03:06:30;;;;;;;12.63;2.90;;;;;;;;;;5115581;28;20127;-37
2024/03/04 03:08:57;;;;;;;12.07;3.63;;;;;;;;;;5115567;28;20028;-37
2024/03/04 03:11:24;;;;;;;12.13;3.15;;;;;;;;;;5115643;28;20489;-35
2024/03/04 03:13:51;;;;;;;20.20;3.42;;;;;;;;;;5113960;28;20020;-35
2024/03/04 03:16:22;;;;;;;17.20;3.45;;;;;;;;;;5115141;28;20039;-37
2024/03/04 03:18:49;;;;;;;17.60;3.08;;;;;;;;;;5115356;28;20111;-36
2024/03/04 03:21:17;;;;;;;14.35;3.28;;;;;;;;;;5115373;28;20027;-38
2024/03/04 03:23:46;;;;;;;27.92;4.18;;;;;;;;;;5115168;28;20088;-39
2024/03/04 03:26:13;;;;;;;18.23;3.22;;;;;;;;;;5115173;28;20090;-34
2024/03/04 03:28:41;;;;;;;13.57;3.42;;;;;;;;;;5115183;28;20359;-38
2024/03/04 03:31:08;;;;;;;17.60;3.42;;;;;;;;;;5115309;28;20065;-36
2024/03/04 03:33:35;;;;;;;16.35;3.60;;;;;;;;;;5115161;28;20561;-36
2024/03/04 03:36:03;;;;;;;17.27;3.17;;;;;;;;;;5115146;28;20046;-34
2024/03/04 03:38:30;;;;;;;15.80;2.70;;;;;;;;;;5106128;28;20486;-34
2024/03/04 03:40:57;;;;;;;16.20;3.63;;;;;;;;;;5114979;28;20023;-36
2024/03/04 03:43:24;;;;;;;14.13;3.03;;;;;;;;;;5114931;28;20506;-33
2024/03/04 03:45:52;;;;;;;11.95;2.60;;;;;;;;;;5115044;28;20099;-38
2024/03/04 03:48:19;;;;;;;10.77;2.60;;;;;;;;;;5114771;28;20032;-36
2024/03/04 03:50:47;;;;;;;12.02;2.63;;;;;;;;;;5114843;28;20062;-37
2024/03/04 03:53:14;;;;;;;11.77;2.65;;;;;;;;;;5114719;28;20084;-33
2024/03/04 03:55:41;;;;;;;10.60;2.65;;;;;;;;;;5114793;28;20020;-33
2024/03/04 03:58:08;;;;;;;15.68;2.58;;;;;;;;;;5114490;28;20038;-33
2024/03/04 04:00:36;;;;;;;12.40;2.60;;;;;;;;;;5114668;28;20508;-35
2024/03/04 04:03:03;;;;;;;8.60;2.15;;;;;;;;;;5114661;28;20036;-34
2024/03/04 04:05:30;;;;;;;9.95;2.10;;;;;;;;;;5114580;28;20149;-33
2024/03/04 04:08:00;;;;;;;8.75;1.83;;;;;;;;;;5114478;28;20023;-31
2024/03/04 04:10:27;;;;;;;10.85;2.20;;;;;;;;;;5113994;28;20059;-38
2024/03/04 04:12:54;;;;;;;8.95;2.53;;;;;;;;;;5114499;28;20101;-36
2024/03/04 04:15:21;;;;;;;7.38;2.00;;;;;;;;;;5114454;28;20492;-34
2024/03/04 04:17:48;;;;;;;6.53;1.85;;;;;;;;;;5095813;28;20020;-33
2024/03/04 04:20:15;;;;;;;7.90;2.00;;;;;;;;;;5114341;28;20123;-30
2024/03/04 04:22:42;;;;;;;8.70;1.80;;;;;;;;;;5114308;28;20030;-34
2024/03/04 04:25:11;;;;;;;8.13;1.95;;;;;;;;;;5114077;28;20093;-34
2024/03/04 04:27:39;;;;;;;10.73;2.03;;;;;;;;;;5113952;28;20015;-33
2024/03/04 04:30:06;;;;;;;12.05;2.63;;;;;;;;;;5114189;28;20400;-36
2024/03/04 04:32:34;;;;;;;11.45;2.03;;;;;;;;;;5114074;28;20026;-36
2024/03/04 04:35:02;;;;;;;10.77;2.15;;;;;;;;;;5113855;28;20469;-38
2024/03/04 04:37:30;;;;;;;8.25;1.98;;;;;;;;;;5114009;28;20039;-38
2024/03/04 04:39:57;;;;;;;6.97;1.90;;;;;;;;;;5113808;28;20038;-39
2024/03/04 04:42:24;;;;;;;9.80;2.17;;;;;;;;;;5095889;28;20020;-36
2024/03/04 04:44:51;;;;;;;9.50;1.85;;;;;;;;;;5113880;28;20046;-37
2024/03/04 04:47:18;;;;;;;9.07;2.20;;;;;;;;;;5113772;28;20148;-35
2024/03/04 04:49:45;;;;;;;6.47;2.00;;;;;;;;;;5113710;28;20024;-36
2024/03/04 04:52:12;;;;;;;10.35;2.00;;;;;;;;;;5113753;28;20031;-37
2024/03/04 04:54:39;;;;;;;6.18;2.00;;;;;;;;;;5113643;28;20035;-38
2024/03/04 04:57:06;;;;;;;7.72;2.20;;;;;;;;;;5113515;28;20400;-34
2024/03/04 04:59:33;;;;;;;9.57;2.40;;;;;;;;;;5113523;28;20545;-34
2024/03/04 05:02:00;;;;;;;6.75;2.00;;;;;;;;;;5113411;28;20115;-35
2024/03/04 05:04:27;;;;;;;8.60;1.98;;;;;;;;;;5113606;28;20081;-37
2024/03/04 05:06:54;;;;;;;9.88;1.70;;;;;;;;;;5112843;28;20023;-35
2024/03/04 05:09:22;;;;;;;9.27;2.30;;;;;;;;;;5113289;28;20028;-39
2024/03/04 05:11:49;;;;;;;11.15;2.10;;;;;;;;;;5113201;28;20069;-35
2024/03/04 05:14:18;;;;;;;7.88;2.47;;;;;;;;;;5113154;28;20103;-34
2024/03/04 05:16:47;;;;;;;9.13;2.53;;;;;;;;;;5113145;28;20114;-35
2024/03/04 05:19:15;;;;;;;7.82;2.40;;;;;;;;;;5112856;28;20038;-35
2024/03/04 05:21:43;;;;;;;9.23;2.15;;;;;;;;;;5111927;28;20397;-36
2024/03/04 05:24:10;;;;;;;8.93;1.92;;;;;;;;;;5112702;28;20505;-37
2024/03/04 05:26:37;;;;;;;10.48;2.50;;;;;;;;;;5094671;28;20035;-38
2024/03/04 05:29:04;;;;;;;9.43;1.95;;;;;;;;;;5112643;28;20077;-37
2024/03/04 05:31:32;;;;;;;5.47;1.83;;;;;;;;;;5112824;28;20027;-38
2024/03/04 05:33:59;;;;;;;7.18;1.85;;;;;;;;;;5092369;28;20036;-31
2024/03/04 05:36:26;;;;;;;7.45;1.92;;;;;;;;;;5092422;28;20085;-33
2024/03/04 05:38:53;;;;;;;7.40;2.13;;;;;;;;;;5092381;28;20047;-35
2024/03/04 05:41:20;;;;;;;6.55;1.80;;;;;;;;;;5092171;28;20089;-31
2024/03/04 05:43:47;;;;;;;5.70;1.63;;;;;;;;;;5092372;28;20059;-31
2024/03/04 05:46:14;;;;;;;6.80;1.65;;;;;;;;;;5092264;28;20020;-33
2024/03/04 05:48:41;;;;;;;7.82;2.00;;;;;;;;;;5092229;28;20028;-34
2024/03/04 05:51:08;;;;;;;8.27;2.30;;;;;;;;;;5092087;28;20039;-34
2024/03/04 05:53:35;;;;;;;7.53;2.00;;;;;;;;;;5092146;28;20020;-32
2024/03/04 05:56:04;;;;;;;10.18;1.65;;;;;;;;;;5092204;28;20031;-31
2024/03/04 05:58:31;;;;;;;6.15;1.92;;;;;;;;;;5091761;28;20032;-33
2024/03/04 06:00:58;;;;;;;4.60;1.80;;;;;;;;;;5092885;28;20131;-31
2024/03/04 06:03:25;;;;;;;8.00;1.60;;;;;;;;;;5112357;28;20054;-35
2024/03/04 06:05:52;;;;;;;6.18;1.80;;;;;;;;;;5112394;28;20069;-31
2024/03/04 06:08:19;;;;;;;7.80;2.20;;;;;;;;;;5111958;28;20039;-35
2024/03/04 06:10:46;;;;;;;9.82;2.05;;;;;;;;;;5112215;28;20384;-37
2024/03/04 06:13:13;;;;;;;7.00;1.95;;;;;;;;;;5112204;28;20106;-38
2024/03/04 06:15:40;;;;;;;9.38;1.95;;;;;;;;;;5112279;28;20073;-34
2024/03/04 06:18:07;;;;;;;5.97;1.80;;;;;;;;;;5112128;28;20534;-37
2024/03/04 06:20:34;;;;;;;8.75;1.73;;;;;;;;;;5111971;28;20036;-35
2024/03/04 06:23:01;;;;;;;9.52;2.03;;;;;;;;;;5111997;28;20489;-34
2024/03/04 06:25:28;;;;;;;7.18;1.80;;;;;;;;;;5111976;28;20078;-35
2024/03/04 06:27:54;;;;;;;8.57;2.17;;;;;;;;;;5111900;28;20036;-35
2024/03/04 06:30:21;;;;;;;7.50;1.75;;;;;;;;;;5111900;28;20111;-33
2024/03/04 06:32:48;;;;;;;7.88;2.08;;;;;;;;;;5111804;28;20565;-33
2024/03/04 06:35:15;;;;;;;6.68;1.77;;;;;;;;;;5111982;28;20032;-34
2024/03/04 06:37:42;;;;;;;6.50;1.80;;;;;;;;;;5111845;28;20027;-35
2024/03/04 06:40:09;;;;;;;7.88;1.95;;;;;;;;;;5111973;28;20567;-31
2024/03/04 06:42:36;;;;;;;12.43;2.00;;;;;;;;;;5111987;28;20466;-32
2024/03/04 06:45:03;;;;;;;6.63;1.80;;;;;;;;;;5111964;28;20024;-34
2024/03/04 06:47:30;;;;;;;9.30;1.98;;;;;;;;;;5111855;28;20034;-33
2024/03/04 06:49:57;;;;;;;8.05;2.00;;;;;;;;;;5111917;28;20073;-31
2024/03/04 06:52:24;;;;;;;8.75;2.25;;;;;;;;;;5111721;28;20035;-32
2024/03/04 06:54:51;;;;;;;8.93;1.85;;;;;;;;;;5111846;28;20024;-35
2024/03/04 06:57:18;;;;;;;8.40;1.92;;;;;;;;;;5111739;28;20020;-34
2024/03/04 06:59:45;;;;;;;8.52;2.00;;;;;;;;;;5111685;28;20043;-33
2024/03/04 07:02:12;;;;;;;7.85;2.20;;;;;;;;;;5111722;28;20107;-30
2024/03/04 07:04:39;;;;;;;9.35;2.20;;;;;;;;;;5109735;28;20032;-35
2024/03/04 07:07:06;;;;;;;9.23;2.10;;;;;;;;;;5091236;28;20032;-37
2024/03/04 07:09:33;;;;;;;10.23;1.90;;;;;;;;;;5091162;28;20031;-37
2024/03/04 07:12:00;;;;;;;7.38;2.00;;;;;;;;;;5091203;28;20035;-39
2024/03/04 07:14:27;;;;;;;5.85;1.70;;;;;;;;;;5091254;28;20116;-37
2024/03/04 07:16:53;;;;;;;4.90;1.88;;;;;;;;;;5091133;28;20028;-37
2024/03/04 07:19:20;;;;;;;5.97;1.60;;;;;;;;;;5091204;28;20455;-35
2024/03/04 07:21:47;;;;;;;5.45;2.00;;;;;;;;;;5091238;28;20123;-34
2024/03/04 07:24:15;;;;;;;7.10;1.70;;;;;;;;;;5091111;28;20054;-35
2024/03/04 07:26:42;;;;;;;5.63;1.58;;;;;;;;;;5091092;28;20028;-39
2024/03/04 07:29:08;;;;;;;4.35;1.60;;;;;;;;;;5090919;28;20050;-34
2024/03/04 07:31:35;;;;;;;7.13;1.83;;;;;;;;;;5091223;28;20562;-34
2024/03/04 07:34:02;;;;;;;5.03;1.30;;;;;;;;;;5091195;28;20020;-39
2024/03/04 07:36:29;;;;;;;5.93;1.77;;;;;;;;;;5091170;28;20020;-36
2024/03/04 07:38:57;;;;;;;4.65;1.90;;;;;;;;;;5091001;28;20120;-38
2024/03/04 07:41:25;;;;;;;6.07;1.48;;;;;;;;;;5090766;28;20440;-38
2024/03/04 07:43:52;;;;;;;6.65;2.17;;;;;;;;;;5090994;28;20103;-36
2024/03/04 07:46:19;;;;;;;9.65;2.03;;;;;;;;;;5094731;28;20034;-37
2024/03/04 07:48:46;;;;;;;5.22;1.45;;;;;;;;;;5094397;28;20027;-39
2024/03/04 07:51:13;;;;;;;5.45;1.63;;;;;;;;;;5094569;28;20081;-35
2024/03/04 07:53:40;;;;;;;9.07;2.38;;;;;;;;;;5094485;28;20028;-33
2024/03/04 07:56:08;;;;;;;3.63;1.38;;;;;;;;;;5094364;28;20028;-36
2024/03/04 07:58:36;;;;;;;5.82;1.50;;;;;;;;;;5093970;28;20031;-36
2024/03/04 08:01:04;;;;;;;5.97;1.98;;;;;;;;;;5094260;28;20035;-36
2024/03/04 08:03:32;;;;;;;4.03;1.73;;;;;;;;;;5094220;28;20085;-34
2024/03/04 08:05:59;;;;;;;5.80;1.92;;;;;;;;;;5094090;28;20047;-38
2024/03/04 08:08:26;;;;;;;7.95;2.08;;;;;;;;;;5075668;28;20111;-36
2024/03/04 08:10:53;;;;;;;8.63;2.05;;;;;;;;;;5094048;28;20478;-37
2024/03/04 08:13:20;;;;;;;6.65;1.50;;;;;;;;;;5093990;28;20557;-35
2024/03/04 08:15:48;;;;;;;7.93;1.95;;;;;;;;;;5093923;28;20024;-37
2024/03/04 08:18:15;;;;;;;7.70;2.15;;;;;;;;;;5093762;28;20032;-34
2024/03/04 08:20:43;;;;;;;6.38;2.00;;;;;;;;;;5093922;28;20125;-41
2024/03/04 08:23:10;;;;;;;8.65;1.90;;;;;;;;;;5093720;28;20036;-38
2024/03/04 08:25:37;;;;;;;5.53;1.50;;;;;;;;;;5093740;28;20067;-36
2024/03/04 08:28:05;;;;;;;6.60;1.92;;;;;;;;;;5075638;28;20040;-36
2024/03/04 08:30:32;;;;;;;6.75;2.08;;;;;;;;;;5093753;28;20067;-32
2024/03/04 08:32:59;;;;;;;6.80;1.60;;;;;;;;;;5093552;28;20049;-37
2024/03/04 08:35:27;;;;;;;8.73;1.80;;;;;;;;;;5093261;28;20375;-37
2024/03/04 08:37:54;;;;;;;6.75;1.75;;;;;;;;;;5093324;28;20462;-36
2024/03/04 08:40:21;;;;;;;6.30;1.60;;;;;;;;;;5093575;28;20036;-36
2024/03/04 08:42:48;;;;;;;6.18;1.65;;;;;;;;;;5093585;28;20035;-38
2024/03/04 08:45:18;;;;;;;6.50;1.63;;;;;;;;;;5093439;28;20028;-35
2024/03/04 08:47:45;;;;;;;10.65;1.83;;;;;;;;;;5093339;28;20093;-36
2024/03/04 08:50:12;;;;;;;5.10;1.55;;;;;;;;;;5093352;28;20093;-35
2024/03/04 08:52:39;;;;;;;9.55;1.92;;;;;;;;;;5074932;28;20073;-37
2024/03/04 08:55:06;;;;;;;5.97;1.50;;;;;;;;;;5093176;28;20024;-35
2024/03/04 08:57:33;;;;;;;8.63;2.30;;;;;;;;;;5092929;28;20035;-33
2024/03/04 09:00:00;;;;;;;4.57;1.33;;;;;;;;;;5093041;28;20052;-38
2024/03/04 09:02:26;;;;;;;4.65;1.73;;;;;;;;;;5073690;28;20040;-39
2024/03/04 09:04:53;;;;;;;6.50;1.70;;;;;;;;;;5092901;28;20115;-34
2024/03/04 09:07:20;;;;;;;5.93;1.60;;;;;;;;;;5092926;28;20031;-37
2024/03/04 09:09:53;;;;;;;9.40;1.70;;;;;;;;;;5092956;28;20110;-38
2024/03/04 09:12:21;;;;;;;5.30;1.80;;;;;;;;;;5092828;28;20040;-33
2024/03/04 09:14:48;;;;;;;8.43;1.60;;;;;;;;;;5092742;28;20152;-38
2024/03/04 09:17:15;;;;;;;7.72;1.70;;;;;;;;;;5092775;28;20035;-38
2024/03/04 09:19:44;;;;;;;7.75;1.48;;;;;;;;;;5098988;28;20430;-37
2024/03/04 09:22:11;;;;;;;8.32;1.55;;;;;;;;;;5111911;28;20118;-32
2024/03/04 09:24:38;;;;;;;6.20;1.75;;;;;;;;;;5113028;28;20048;-34
2024/03/04 09:27:06;;;;;;;9.18;2.25;;;;;;;;;;5112970;28;20031;-31
2024/03/04 09:29:33;;;;;;;7.60;1.60;;;;;;;;;;5111892;28;20027;-37
2024/03/04 09:32:00;;;;;;;9.32;2.05;;;;;;;;;;5112352;28;20032;-37
2024/03/04 09:34:27;;;;;;;8.85;1.75;;;;;;;;;;5112610;28;20076;-33
2024/03/04 09:36:54;;;;;;;7.78;1.92;;;;;;;;;;5112289;28;20043;-42
2024/03/04 09:39:21;;;;;;;7.57;1.77;;;;;;;;;;5093721;28;20427;-32
2024/03/04 09:41:48;;;;;;;7.32;1.73;;;;;;;;;;5111289;28;20118;-34
2024/03/04 09:44:15;;;;;;;10.98;2.00;;;;;;;;;;5112156;28;20031;-34
2024/03/04 09:46:43;;;;;;;10.32;1.88;;;;;;;;;;5112592;28;20440;-31
2024/03/04 09:49:10;;;;;;;8.93;1.80;;;;;;;;;;5112407;28;20032;-36
2024/03/04 09:51:38;;;;;;;8.15;2.00;;;;;;;;;;5112558;28;20077;-37
2024/03/04 09:54:05;;;;;;;8.60;2.20;;;;;;;;;;5112668;28;20028;-37
2024/03/04 09:56:32;;;;;;;11.45;2.20;;;;;;;;;;5112382;28;20027;-35
2024/03/04 09:58:59;;;;;;;8.85;1.90;;;;;;;;;;5112417;28;20072;-37
2024/03/04 10:01:26;;;;;;;12.75;2.00;;;;;;;;;;5112306;28;20110;-35
2024/03/04 10:03:54;;;;;;;16.08;2.67;;;;;;;;;;5094145;28;20051;-34
2024/03/04 10:06:21;;;;;;;8.57;2.28;;;;;;;;;;5112052;28;20439;-38
2024/03/04 10:09:28;;;;;;;9.68;2.42;;;;;;;;;;5111945;28;20058;-38
2024/03/04 10:14:59;;;;;;;9.65;1.90;;;;;;;;;;5106225;28;20074;-36
2024/03/04 10:17:27;;;;;;;12.45;2.55;;;;;;;;;;5111472;28;20027;-35
2024/03/04 10:20:00;;;;;;;13.68;2.55;;;;;;;;;;5111985;28;20031;-37
2024/03/04 10:22:36;;;;;;;13.80;2.75;;;;;;;;;;5111930;28;20489;-35
2024/03/04 10:25:06;;;;;;;12.40;2.67;;;;;;;;;;5111663;28;20132;-39
2024/03/04 10:27:34;;;;;;;12.85;2.63;;;;;;;;;;5111963;28;20405;-33
2024/03/04 10:30:11;;;;;;;16.40;3.28;;;;;;;;;;5111925;28;20386;-35
2024/03/04 10:32:38;;;;;;;15.48;3.72;;;;;;;;;;5111247;28;20019;-34
2024/03/04 10:35:06;;;;;;;13.75;3.08;;;;;;;;;;5112002;28;20035;-34
2024/03/04 10:37:33;;;;;;;21.90;3.60;;;;;;;;;;5111048;28;20034;-34
2024/03/04 10:40:00;;;;;;;15.85;3.30;;;;;;;;;;5111998;28;20035;-41
2024/03/04 10:42:28;;;;;;;18.88;2.92;;;;;;;;;;5111795;28;20539;-35
2024/03/04 10:44:55;;;;;;;19.90;3.65;;;;;;;;;;5093438;28;20028;-37
2024/03/04 10:47:25;;;;;;;22.27;4.20;;;;;;;;;;5111841;28;20046;-35
2024/03/04 10:49:52;;;;;;;11.80;3.20;;;;;;;;;;5111739;28;20027;-37
2024/03/04 10:52:38;;;;;;;19.65;3.35;;;;;;;;;;5110941;28;20038;-35
2024/03/04 10:55:05;;;;;;;17.92;3.65;;;;;;;;;;5110434;28;20495;-34
2024/03/04 10:57:34;;;;;;;21.20;3.67;;;;;;;;;;5118083;28;20055;-33
2024/03/04 11:00:25;;;;;;;20.77;3.63;;;;;;;;;;5119810;28;20039;-37
2024/03/04 11:03:05;;;;;;;17.55;3.30;;;;;;;;;;5100784;28;20040;-33
2024/03/04 11:05:33;;;;;;;24.50;4.18;;;;;;;;;;5101441;28;20078;-33
2024/03/04 11:08:04;;;;;;;36.70;4.43;;;;;;;;;;5105203;28;20042;-37
2024/03/04 11:10:32;;;;;;;19.20;3.73;;;;;;;;;;5110790;28;20437;-40
2024/03/04 11:13:28;;;;;;;24.42;3.90;;;;;;;;;;5110752;28;20423;-34
2024/03/04 11:16:03;;;;;;;23.23;3.38;;;;;;;;;;5056581;28;20092;-37
2024/03/04 11:18:30;;;;;;;27.23;4.22;;;;;;;;;;5111063;28;20027;-35
2024/03/04 11:20:57;;;;;;;25.75;3.65;;;;;;;;;;5115249;28;20036;-35
2024/03/04 11:23:25;;;;;;;30.55;4.25;;;;;;;;;;5118320;27;20522;-39
2024/03/04 11:25:52;;;;;;;20.92;3.38;;;;;;;;;;5114680;28;20043;-38
2024/03/04 11:28:19;;;;;;;18.20;3.55;;;;;;;;;;5114366;28;20037;-33
2024/03/04 11:30:51;;;;;;;19.23;3.38;;;;;;;;;;5110327;28;20063;-41
2024/03/04 11:33:39;;;;;;;14.02;3.53;;;;;;;;;;5114964;28;20034;-34
2024/03/04 11:36:10;;;;;;;18.40;3.33;;;;;;;;;;5111874;28;20489;-37
2024/03/04 11:38:41;;;;;;;23.98;3.63;;;;;;;;;;5114127;28;20030;-41
2024/03/04 11:41:11;;;;;;;16.97;3.23;;;;;;;;;;5112197;28;20386;-34
2024/03/04 11:43:45;;;;;;;16.95;2.85;;;;;;;;;;5114588;28;20036;-35
2024/03/04 11:46:16;;;;;;;17.25;3.58;;;;;;;;;;5114347;28;20477;-35
2024/03/04 11:48:43;;;;;;;23.33;3.92;;;;;;;;;;5113764;28;20028;-35
2024/03/04 11:51:10;;;;;;;22.42;3.70;;;;;;;;;;5114570;28;20032;-39
2024/03/04 11:53:40;;;;;;;17.88;3.08;;;;;;;;;;5114594;28;20089;-35
2024/03/04 11:56:07;;;;;;;14.32;2.88;;;;;;;;;;5114821;28;20028;-32
2024/03/04 11:58:34;;;;;;;23.95;3.53;;;;;;;;;;5114510;28;20079;-35
2024/03/04 12:01:39;;;;;;;;;;;;;;;;;;;;;
2024/03/04 12:04:19;;;;;;;22.33;3.60;;;;;;;;;;5092103;28;20036;-32
2024/03/04 12:06:47;;;;;;;21.33;3.67;;;;;;;;;;5114398;28;20043;-34
2024/03/04 12:09:17;;;;;;;19.52;2.95;;;;;;;;;;5114445;28;20035;-33
2024/03/04 12:11:47;;;;;;;19.30;2.97;;;;;;;;;;5114561;28;20031;-38
2024/03/04 12:14:14;;;;;;;19.48;2.90;;;;;;;;;;5114218;28;20115;-38
2024/03/04 12:16:41;;;;;;;24.00;3.38;;;;;;;;;;5114174;28;20027;-40
2024/03/04 12:19:08;;;;;;;17.77;3.10;;;;;;;;;;5114333;28;20028;-37
2024/03/04 12:21:36;;;;;;;18.90;2.97;;;;;;;;;;5114216;28;20120;-39
2024/03/04 12:24:03;;;;;;;15.15;2.97;;;;;;;;;;5114136;28;20059;-34
2024/03/04 12:26:30;;;;;;;16.83;2.75;;;;;;;;;;5114133;28;20063;-38
2024/03/04 12:29:00;;;;;;;11.65;2.47;;;;;;;;;;5113975;28;20055;-39
2024/03/04 12:31:28;;;;;;;16.08;2.65;;;;;;;;;;5113039;28;20035;-37
2024/03/04 12:33:55;;;;;;;17.80;3.13;;;;;;;;;;5112411;28;20032;-35
2024/03/04 12:36:28;;;;;;;26.00;3.17;;;;;;;;;;5113076;28;20118;-35
2024/03/04 12:38:58;;;;;;;10.55;2.40;;;;;;;;;;5108143;28;20697;-36
2024/03/04 12:41:25;;;;;;;17.08;2.85;;;;;;;;;;5112701;28;20047;-37
2024/03/04 12:43:55;;;;;;;22.38;3.35;;;;;;;;;;5112769;28;20505;-33
2024/03/04 12:46:25;;;;;;;22.23;3.35;;;;;;;;;;5112664;28;20070;-32
2024/03/04 12:49:02;;;;;;;15.00;2.72;;;;;;;;;;5107600;28;20030;-35
2024/03/04 12:51:29;;;;;;;23.35;3.80;;;;;;;;;;5112931;28;20050;-38
2024/03/04 12:53:56;;;;;;;21.83;3.00;;;;;;;;;;5112227;28;20023;-37
2024/03/04 12:56:23;;;;;;;14.50;2.80;;;;;;;;;;5112456;28;20504;-38
2024/03/04 12:58:50;;;;;;;19.05;3.10;;;;;;;;;;5111594;28;20028;-37
2024/03/04 13:01:17;;;;;;;11.18;2.40;;;;;;;;;;5111310;28;20512;-34
2024/03/04 13:03:44;;;;;;;19.98;2.58;;;;;;;;;;5112451;28;20023;-38
2024/03/04 13:06:13;;;;;;;15.18;3.08;;;;;;;;;;5112409;28;20114;-40
2024/03/04 13:08:40;;;;;;;14.15;3.25;;;;;;;;;;5112124;28;20110;-37
2024/03/04 13:11:07;;;;;;;9.88;2.38;;;;;;;;;;5112337;28;20034;-37
2024/03/04 13:13:34;;;;;;;14.40;2.58;;;;;;;;;;5112336;28;20359;-35
2024/03/04 13:16:01;;;;;;;16.42;2.85;;;;;;;;;;5112624;28;20032;-35
2024/03/04 13:18:28;;;;;;;11.93;2.88;;;;;;;;;;5112197;28;20027;-33
2024/03/04 13:20:55;;;;;;;14.43;2.40;;;;;;;;;;5112138;28;20067;-36
2024/03/04 13:23:22;;;;;;;17.20;2.88;;;;;;;;;;5081007;28;20497;-37
2024/03/04 13:25:49;;;;;;;16.48;2.92;;;;;;;;;;5112031;28;22091;-38
2024/03/04 13:28:16;;;;;;;19.65;2.55;;;;;;;;;;5106790;28;20484;-37
2024/03/04 13:30:43;;;;;;;16.85;2.88;;;;;;;;;;5112361;28;20559;-32
2024/03/04 13:33:10;;;;;;;17.55;3.13;;;;;;;;;;5112182;28;20063;-33
2024/03/04 13:35:37;;;;;;;22.40;3.25;;;;;;;;;;5112261;28;20066;-36
2024/03/04 13:38:04;;;;;;;12.77;2.47;;;;;;;;;;5111713;28;20097;-36
2024/03/04 13:40:31;;;;;;;10.30;2.40;;;;;;;;;;5111648;28;20393;-35
2024/03/04 13:42:58;;;;;;;19.10;2.90;;;;;;;;;;5111007;28;20023;-35
2024/03/04 13:45:25;;;;;;;16.25;2.50;;;;;;;;;;5111710;28;20102;-39
2024/03/04 13:47:52;;;;;;;11.88;2.70;;;;;;;;;;5110977;28;20019;-33
2024/03/04 13:50:19;;;;;;;12.95;2.63;;;;;;;;;;5112089;28;20415;-39
2024/03/04 13:52:45;;;;;;;16.38;2.67;;;;;;;;;;5112293;28;20039;-38
2024/03/04 13:55:13;;;;;;;15.98;2.60;;;;;;;;;;5112568;28;20528;-37
2024/03/04 13:57:44;;;;;;;11.50;1.90;;;;;;;;;;5110649;28;20110;-37
2024/03/04 14:00:13;;;;;;;16.77;3.05;;;;;;;;;;5112099;28;20107;-37
2024/03/04 14:02:40;;;;;;;21.08;3.30;;;;;;;;;;5111019;28;20051;-41
2024/03/04 14:05:12;;;;;;;17.48;2.42;;;;;;;;;;5110153;28;20032;-40
2024/03/04 14:07:43;;;;;;;26.65;3.47;;;;;;;;;;5104964;28;20031;-34
2024/03/04 14:10:11;;;;;;;21.90;3.05;;;;;;;;;;5110710;28;20050;-36
2024/03/04 14:12:41;;;;;;;11.07;2.70;;;;;;;;;;5108619;28;20556;-35
2024/03/04 14:15:08;;;;;;;11.40;2.60;;;;;;;;;;5105188;28;20058;-32
2024/03/04 14:17:36;;;;;;;16.90;2.47;;;;;;;;;;5106962;28;20023;-38
2024/03/04 14:20:05;;;;;;;16.95;3.20;;;;;;;;;;5107251;28;20035;-38
2024/03/04 14:22:35;;;;;;;18.55;3.08;;;;;;;;;;5110250;28;20130;-39
2024/03/04 14:25:03;;;;;;;20.83;2.97;;;;;;;;;;5107543;28;20515;-35
2024/03/04 14:27:30;;;;;;;16.15;2.33;;;;;;;;;;5109501;28;20032;-38
2024/03/04 14:30:00;;;;;;;22.67;2.58;;;;;;;;;;5109230;28;20023;-33
2024/03/04 14:32:27;;;;;;;17.10;2.90;;;;;;;;;;5110704;28;20484;-36
2024/03/04 14:34:54;;;;;;;13.70;2.75;;;;;;;;;;5111069;28;20438;-34
2024/03/04 14:37:21;;;;;;;22.90;2.97;;;;;;;;;;5110504;28;20023;-37
2024/03/04 14:39:48;;;;;;;14.55;2.30;;;;;;;;;;5110971;28;20110;-40
2024/03/04 14:42:16;;;;;;;18.35;3.13;;;;;;;;;;5111203;28;20079;-38
2024/03/04 14:44:46;;;;;;;16.25;2.95;;;;;;;;;;5105475;28;20034;-36